Atoka, New Mexico
Current Conditions -  °F | °C
As of 2:53 AM on Sunday 23 Nov 2014 (Local Time) from KCNM Reporting Station
Clear Clear  
Wind Chill: 15°   Ceiling: Unl
Heat Index: 15°   Visibility: 10mi
Dew Point: -8°   Wind: 25mph
Humidity: 20%   Direction: 250°WSW
Pressure: 29.66"   Gusts: 37mph
Location:  32.7449°N, 104.256°W
Report Text: KCNM 230953Z AUTO 25022G32KT 10SM CLR 15/M08 A2966 RMK AO2 PK WND 25037/0928 SLP001 T01501083
Loading
Personal Weather Stations






























Interactive Weather Map New forecast layout! Learn more

10-Day Weather Forecast

Advertisements
Track Severe Weather on mobile